Time;durP1;ratioP1;P1;durP2;ratioP2;P2;SDS_P1;SDS_P2;PMS_P1;PMS_P2;Temp;Humidity;BMP_temperature;BMP_pressure;BME280_temperature;BME280_humidity;BME280_pressure;Samples;Min_cycle;Max_cycle;Signal;HPM_P1;HPM_P2
2022/06/13 00:00:10;;;;;;;16.35;3.53;;;;;;;12.79;75.04;100177.41;5106319;28;20024;-68
2022/06/13 00:02:35;;;;;;;14.15;4.30;;;;;;;12.80;74.74;100185.19;5106691;28;20094;-67
2022/06/13 00:05:05;;;;;;;20.67;3.85;;;;;;;12.81;74.70;100186.03;5106557;28;20476;-68
2022/06/13 00:07:31;;;;;;;11.38;2.90;;;;;;;12.79;74.58;100188.69;5106241;28;20091;-67
2022/06/13 00:09:57;;;;;;;14.70;4.18;;;;;;;12.77;74.46;100182.63;5106405;28;20395;-68
2022/06/13 00:12:23;;;;;;;11.93;3.75;;;;;;;12.78;74.55;100181.75;5106594;28;20020;-68
2022/06/13 00:14:48;;;;;;;18.25;5.40;;;;;;;12.75;74.97;100177.47;5106283;28;20021;-68
2022/06/13 00:17:13;;;;;;;17.20;4.15;;;;;;;12.68;74.95;100164.59;5106519;28;20134;-67
2022/06/13 00:19:39;;;;;;;18.30;3.88;;;;;;;12.72;75.12;100187.09;5106342;28;20030;-67
2022/06/13 00:22:05;;;;;;;18.45;4.25;;;;;;;12.71;75.21;100180.16;5106479;28;20031;-68
2022/06/13 00:24:30;;;;;;;18.08;4.53;;;;;;;12.70;75.47;100181.91;5106517;28;20083;-68
2022/06/13 00:26:56;;;;;;;33.55;5.63;;;;;;;12.72;75.42;100174.06;5106276;28;20023;-70
2022/06/13 00:29:21;;;;;;;16.50;4.50;;;;;;;12.69;75.62;100180.19;5105823;28;20051;-68
2022/06/13 00:31:46;;;;;;;23.00;4.70;;;;;;;12.68;75.16;100172.41;5106121;28;20034;-68
2022/06/13 00:34:12;;;;;;;20.48;4.82;;;;;;;12.64;75.40;100167.28;5106265;28;20012;-68
2022/06/13 00:36:37;;;;;;;16.02;4.00;;;;;;;12.66;75.34;100167.25;5105648;28;20020;-68
2022/06/13 00:39:03;;;;;;;22.48;5.28;;;;;;;12.67;75.17;100170.72;5105770;28;20073;-68
2022/06/13 00:41:32;;;;;;;20.60;4.60;;;;;;;12.66;74.87;100171.59;5105906;28;20084;-68
2022/06/13 00:43:59;;;;;;;13.45;4.70;;;;;;;12.59;75.01;100156.09;5087371;28;20028;-68
2022/06/13 00:46:27;;;;;;;23.08;4.57;;;;;;;12.62;74.64;100166.44;5105993;28;20020;-68
2022/06/13 00:49:00;;;;;;;19.58;4.88;;;;;;;12.60;74.50;100157.78;5105936;28;20369;-68
2022/06/13 00:51:25;;;;;;;20.30;4.20;;;;;;;12.55;74.39;100164.88;5105888;28;20047;-68
2022/06/13 00:53:51;;;;;;;20.58;5.72;;;;;;;12.55;74.33;100171.81;5105538;28;20024;-68
2022/06/13 00:56:23;;;;;;;18.70;4.90;;;;;;;12.53;74.19;100164.03;5106057;28;20042;-68
2022/06/13 00:59:01;;;;;;;26.40;5.78;;;;;;;12.48;74.59;100168.47;5105269;28;20143;-68
2022/06/13 01:01:28;;;;;;;20.73;4.38;;;;;;;12.48;74.38;100163.25;5087575;28;20020;-66
2022/06/13 01:03:56;;;;;;;19.85;4.55;;;;;;;12.50;74.34;100166.69;5105533;28;20027;-67
2022/06/13 01:06:22;;;;;;;21.00;4.82;;;;;;;12.48;74.33;100158.91;5105432;28;20466;-67
2022/06/13 01:08:48;;;;;;;13.85;4.13;;;;;;;12.45;73.88;100155.50;5105448;28;20019;-67
2022/06/13 01:11:18;;;;;;;25.23;4.93;;;;;;;12.46;74.04;100149.44;5105530;28;20050;-67
2022/06/13 01:14:15;;;;;;;14.30;4.15;;;;;;;12.43;74.05;100154.72;5105320;28;20031;-67
2022/06/13 01:17:11;;;;;;;25.27;4.57;;;;;;;12.39;74.31;100152.16;5105525;28;20043;-66
2022/06/13 01:20:04;;;;;;;22.90;5.55;;;;;;;12.33;74.16;100149.66;5105165;28;20020;-67
2022/06/13 01:22:56;;;;;;;16.55;4.30;;;;;;;12.28;74.58;100151.53;5105396;28;20561;-67
2022/06/13 01:25:25;;;;;;;20.33;4.00;;;;;;;12.25;74.47;100151.59;5105189;28;20032;-67
2022/06/13 01:28:03;;;;;;;33.95;5.80;;;;;;;12.25;74.63;100147.22;5105245;28;20020;-67
2022/06/13 01:30:31;;;;;;;26.15;3.50;;;;;;;12.23;74.71;100148.16;5104880;28;20026;-67
2022/06/13 01:33:17;;;;;;;18.30;4.38;;;;;;;12.22;74.46;100147.28;5105127;28;20035;-67
2022/06/13 01:35:55;;;;;;;14.75;4.13;;;;;;;12.12;74.71;100135.34;5104187;28;20040;-67
2022/06/13 01:38:54;;;;;;;20.63;4.50;;;;;;;12.19;74.52;100149.09;5104929;28;20069;-67
2022/06/13 01:41:42;;;;;;;18.00;4.55;;;;;;;12.12;74.45;100146.59;5105011;28;20022;-66
2022/06/13 01:44:34;;;;;;;21.77;5.57;;;;;;;12.02;74.42;100134.63;5104503;28;20039;-67
2022/06/13 01:47:06;;;;;;;18.85;4.15;;;;;;;11.96;74.51;100134.75;5104796;28;20511;-67
2022/06/13 01:50:02;;;;;;;31.13;5.03;;;;;;;11.90;74.71;100130.53;5103710;28;20055;-67
2022/06/13 01:53:06;;;;;;;12.73;4.10;;;;;;;11.88;74.97;100137.47;5104688;28;20102;-67
2022/06/13 01:55:44;;;;;;;24.10;4.35;;;;;;;11.91;74.78;100140.03;5104546;28;20027;-67
2022/06/13 01:58:14;;;;;;;16.65;4.30;;;;;;;11.92;74.69;100138.28;5104396;28;20068;-67
2022/06/13 02:00:48;;;;;;;26.80;5.20;;;;;;;11.93;74.68;100138.25;5104403;28;20372;-67
2022/06/13 02:03:43;;;;;;;25.48;4.60;;;;;;;11.93;74.96;100140.88;5104218;28;20016;-67
2022/06/13 02:06:18;;;;;;;20.80;4.40;;;;;;;11.96;75.01;100143.41;5104421;28;20053;-66
2022/06/13 02:08:51;;;;;;;21.30;4.90;;;;;;;11.96;74.93;100130.41;5104378;28;20024;-67
2022/06/13 02:11:48;;;;;;;22.98;4.78;;;;;;;11.99;75.12;100129.47;5104132;28;20452;-66
2022/06/13 02:14:36;;;;;;;17.75;5.40;;;;;;;12.02;75.20;100129.41;5095889;28;20103;-69
2022/06/13 02:17:12;;;;;;;17.98;5.07;;;;;;;12.02;75.15;100127.69;5093052;28;20110;-66
2022/06/13 02:19:53;;;;;;;20.42;5.30;;;;;;;12.07;74.96;100130.19;5104045;28;20020;-67
2022/06/13 02:22:26;;;;;;;19.52;2.85;;;;;;;12.06;74.94;100120.66;5104033;28;20024;-67
2022/06/13 02:24:59;;;;;;;21.15;4.55;;;;;;;12.03;75.12;100121.59;5104046;28;20024;-67
2022/06/13 02:27:35;;;;;;;24.45;4.80;;;;;;;12.02;74.91;100124.22;5103839;28;20024;-67
2022/06/13 02:30:06;;;;;;;19.20;3.97;;;;;;;12.02;74.73;100125.09;5103752;28;20024;-67
2022/06/13 02:32:39;;;;;;;13.77;4.18;;;;;;;11.98;75.21;100126.00;5103810;28;20557;-68
2022/06/13 02:35:18;;;;;;;22.88;5.32;;;;;;;12.02;74.95;100124.22;5103976;28;20046;-67
2022/06/13 02:37:56;;;;;;;19.70;4.65;;;;;;;11.99;75.29;100116.47;5103609;28;20027;-67
2022/06/13 02:40:29;;;;;;;21.42;4.43;;;;;;;11.98;75.36;100117.38;5103804;28;20034;-68
2022/06/13 02:43:12;;;;;;;18.45;4.45;;;;;;;11.97;75.44;100120.84;5103425;28;20515;-68
2022/06/13 02:46:06;;;;;;;15.43;4.18;;;;;;;11.95;75.74;100120.03;5103736;28;20020;-67
2022/06/13 02:48:49;;;;;;;21.30;3.92;;;;;;;11.97;75.75;100120.84;5103639;28;20027;-68
2022/06/13 02:51:23;;;;;;;20.63;5.25;;;;;;;11.96;76.04;100129.53;5103712;28;20024;-67
2022/06/13 02:54:04;;;;;;;16.48;3.35;;;;;;;11.96;76.17;100116.53;5103735;28;20020;-67
2022/06/13 02:57:24;;;;;;;19.70;4.75;;;;;;;11.97;76.11;100110.44;5103590;28;20166;-67
2022/06/13 03:00:08;;;;;;;23.08;4.90;;;;;;;11.96;76.15;100106.13;5090850;28;20032;-68
2022/06/13 03:02:48;;;;;;;15.55;3.63;;;;;;;11.96;76.48;100109.59;5107593;28;20084;-68
2022/06/13 03:05:26;;;;;;;15.98;3.85;;;;;;;12.01;76.46;100096.50;5107870;28;20031;-66
2022/06/13 03:08:13;;;;;;;19.17;4.90;;;;;;;12.04;76.41;100109.44;5107675;28;20185;-67
2022/06/13 03:10:58;;;;;;;15.13;3.42;;;;;;;12.07;76.52;100105.91;5107576;28;20032;-67
2022/06/13 03:13:38;;;;;;;13.27;4.20;;;;;;;12.09;76.78;100098.97;5089286;28;20024;-67
2022/06/13 03:16:27;;;;;;;13.63;4.22;;;;;;;12.14;76.43;100097.97;5107461;28;20028;-68
2022/06/13 03:18:59;;;;;;;16.02;3.85;;;;;;;12.20;76.63;100101.34;5107518;28;20024;-67
2022/06/13 03:21:32;;;;;;;15.52;4.00;;;;;;;12.21;76.65;100100.47;5107286;28;20047;-67
2022/06/13 03:24:04;;;;;;;11.13;3.30;;;;;;;12.24;76.78;100095.19;5107578;28;20028;-67
2022/06/13 03:26:37;;;;;;;15.95;3.25;;;;;;;12.29;76.59;100090.75;5107249;28;20020;-67
2022/06/13 03:29:45;;;;;;;20.88;4.20;;;;;;;12.43;76.56;100097.44;5107196;28;20093;-67
2022/06/13 03:32:16;;;;;;;12.35;3.65;;;;;;;12.44;76.22;100083.50;5067503;28;20044;-67
2022/06/13 03:34:47;;;;;;;12.50;3.40;;;;;;;12.50;76.31;100096.41;5089299;28;20141;-67
2022/06/13 03:37:29;;;;;;;11.82;2.72;;;;;;;12.60;75.56;100092.69;5107142;28;20158;-66
2022/06/13 03:40:04;;;;;;;11.25;3.00;;;;;;;12.66;74.61;100096.94;5106989;28;20024;-66
2022/06/13 03:42:41;;;;;;;11.55;2.92;;;;;;;12.69;74.63;100090.78;5107069;28;20084;-67
2022/06/13 03:45:16;;;;;;;11.50;2.83;;;;;;;12.73;74.72;100089.84;5106891;28;20147;-66
2022/06/13 03:48:14;;;;;;;12.45;2.88;;;;;;;12.92;74.81;100085.06;5106954;28;20055;-66
2022/06/13 03:50:39;;;;;;;13.45;2.88;;;;;;;13.11;74.41;100088.09;5024009;28;20033;-66
2022/06/13 03:53:11;;;;;;;12.95;3.67;;;;;;;13.22;73.20;100081.75;5024066;28;20045;-66
2022/06/13 03:56:08;;;;;;;13.13;2.90;;;;;;;13.32;72.33;100078.00;5024059;28;20034;-66
2022/06/13 03:58:40;;;;;;;13.00;3.33;;;;;;;13.38;72.13;100077.88;5023378;28;20042;-67
2022/06/13 04:01:14;;;;;;;14.20;3.05;;;;;;;13.37;70.99;100085.72;5023819;28;20041;-68
2022/06/13 04:03:41;;;;;;;11.63;2.47;;;;;;;13.29;70.78;100082.47;5023865;28;20038;-66
2022/06/13 04:06:32;;;;;;;12.82;2.58;;;;;;;13.22;70.39;100084.34;5023972;28;20034;-66
2022/06/13 04:09:00;;;;;;;10.30;2.15;;;;;;;13.10;70.19;100073.31;5023743;28;20041;-66
2022/06/13 04:11:37;;;;;;;10.68;2.58;;;;;;;12.94;70.41;100083.25;5023105;28;20033;-65
2022/06/13 04:14:11;;;;;;;6.38;1.98;;;;;;;12.71;70.19;100100.28;5023657;28;20045;-67
2022/06/13 04:17:00;;;;;;;5.32;2.60;;;;;;;12.29;70.47;100069.94;5023872;28;20454;-68
2022/06/13 04:19:49;;;;;;;5.32;1.63;;;;;;;12.24;70.62;100100.41;5023664;28;20418;-68
2022/06/13 04:22:20;;;;;;;4.80;2.60;;;;;;;11.96;70.93;100098.31;5023448;28;20029;-67
2022/06/13 04:25:04;;;;;;;27.15;3.42;;;;;;;11.88;71.00;100116.69;5023546;28;20181;-67
2022/06/13 04:27:46;;;;;;;8.30;2.08;;;;;;;11.56;71.83;100108.56;5064467;28;20087;-68
2022/06/13 04:30:19;;;;;;;11.63;3.53;;;;;;;11.29;73.37;100105.56;5106125;28;20364;-69
2022/06/13 04:32:57;;;;;;;11.70;3.05;;;;;;;11.05;74.51;100107.66;5105950;28;20049;-69
2022/06/13 04:35:23;;;;;;;14.75;2.90;;;;;;;10.91;75.79;100100.91;5106058;28;20030;-69
2022/06/13 04:37:50;;;;;;;15.10;3.08;;;;;;;10.84;76.95;100096.69;5087802;28;20020;-69
2022/06/13 04:40:21;;;;;;;12.75;3.38;;;;;;;10.80;78.92;100100.22;5105769;28;20047;-69
2022/06/13 04:42:49;;;;;;;14.32;3.28;;;;;;;10.80;80.42;100110.59;5105904;28;20024;-69
2022/06/13 04:45:28;;;;;;;14.65;2.95;;;;;;;10.81;81.61;100101.94;5105723;28;20035;-69
2022/06/13 04:47:56;;;;;;;15.27;3.35;;;;;;;10.85;81.91;100108.78;5105809;28;20069;-69
2022/06/13 04:50:33;;;;;;;12.38;3.67;;;;;;;10.89;82.36;100107.84;5105802;28;20024;-70
2022/06/13 04:53:00;;;;;;;19.17;3.30;;;;;;;10.99;82.79;100111.19;5105728;28;20020;-70
2022/06/13 04:55:32;;;;;;;11.32;3.33;;;;;;;11.03;82.79;100112.00;5087441;28;20086;-69
2022/06/13 04:57:58;;;;;;;12.32;3.50;;;;;;;11.05;82.93;100115.44;5105361;28;20063;-70
2022/06/13 05:00:24;;;;;;;14.07;2.72;;;;;;;11.11;83.26;100117.94;5105505;28;20028;-70
2022/06/13 05:02:53;;;;;;;9.90;3.10;;;;;;;11.29;83.74;100121.16;5105850;28;20024;-66
2022/06/13 05:05:41;;;;;;;10.35;2.60;;;;;;;12.04;86.87;100112.03;5105670;28;20087;-69
2022/06/13 05:08:21;;;;;;;17.73;3.75;;;;;;;12.63;85.84;100116.09;5105414;28;20099;-72
2022/06/13 05:10:51;;;;;;;10.23;2.50;;;;;;;13.20;85.57;100104.38;5105401;28;20069;-69
2022/06/13 05:13:17;;;;;;;11.27;2.58;;;;;;;13.98;84.93;100107.63;5105498;28;20020;-69
2022/06/13 05:15:48;;;;;;;12.02;2.92;;;;;;;14.79;82.83;100110.56;5105203;28;20106;-68
2022/06/13 05:18:27;;;;;;;22.42;3.03;;;;;;;14.93;79.70;100115.38;5105335;28;20031;-67
2022/06/13 05:21:29;;;;;;;14.57;3.63;;;;;;;14.82;78.97;100110.50;5086755;28;20035;-64
2022/06/13 05:24:27;;;;;;;14.00;2.45;;;;;;;14.81;78.87;100114.00;5086818;28;20031;-65
2022/06/13 05:26:52;;;;;;;9.05;2.53;;;;;;;14.92;76.06;100120.66;5105110;28;20028;-66
2022/06/13 05:29:17;;;;;;;17.77;2.60;;;;;;;14.98;74.68;100100.38;5104769;28;20038;-65
2022/06/13 05:31:43;;;;;;;12.93;3.22;;;;;;;15.34;75.23;100116.69;5104886;28;20028;-65
2022/06/13 05:34:20;;;;;;;9.43;2.13;;;;;;;16.10;75.41;100127.22;5104864;28;20020;-65
2022/06/13 05:36:45;;;;;;;9.75;2.13;;;;;;;16.78;73.58;100119.50;5104728;28;20035;-66
2022/06/13 05:39:11;;;;;;;7.80;2.28;;;;;;;16.92;67.99;100111.09;5104888;28;20028;-65
2022/06/13 05:41:37;;;;;;;10.15;2.28;;;;;;;17.17;69.14;100131.97;5104514;28;20020;-66
2022/06/13 05:44:02;;;;;;;9.23;2.10;;;;;;;17.66;68.53;100132.63;5104156;28;20087;-66
2022/06/13 05:46:32;;;;;;;10.15;2.30;;;;;;;17.60;65.83;100131.13;5104660;28;20016;-66
2022/06/13 05:48:58;;;;;;;9.85;2.75;;;;;;;17.22;64.85;100129.19;5104232;28;20043;-66
2022/06/13 05:51:24;;;;;;;9.93;3.08;;;;;;;16.87;65.36;100136.66;5104166;28;20030;-65
2022/06/13 05:53:50;;;;;;;8.68;2.53;;;;;;;16.99;66.21;100136.16;5104647;28;20009;-67
2022/06/13 05:56:16;;;;;;;6.95;2.15;;;;;;;16.87;65.19;100136.66;5104657;28;20379;-66
2022/06/13 05:58:41;;;;;;;12.18;2.60;;;;;;;16.83;65.54;100126.28;5104179;28;20052;-66
2022/06/13 06:01:07;;;;;;;7.88;1.98;;;;;;;16.78;65.39;100130.84;5104576;28;20111;-67
2022/06/13 06:03:33;;;;;;;12.02;2.75;;;;;;;16.63;64.96;100132.28;5104315;28;20079;-66
2022/06/13 06:06:00;;;;;;;15.18;3.20;;;;;;;16.76;65.52;100130.03;5104064;28;20027;-66
2022/06/13 06:08:29;;;;;;;8.82;2.10;;;;;;;16.68;63.60;100132.97;5104263;28;20032;-66
2022/06/13 06:10:56;;;;;;;11.48;2.35;;;;;;;16.40;61.74;100134.03;5104133;28;20035;-65
2022/06/13 06:13:22;;;;;;;9.50;2.03;;;;;;;16.68;62.79;100126.84;5104384;28;20027;-65
2022/06/13 06:15:49;;;;;;;12.10;2.05;;;;;;;17.54;63.02;100126.97;5104110;28;20028;-67
2022/06/13 06:18:16;;;;;;;6.78;1.90;;;;;;;18.06;58.07;100128.28;5104201;28;20089;-67
2022/06/13 06:20:42;;;;;;;7.53;1.75;;;;;;;17.89;58.09;100136.03;5103924;28;20024;-67
2022/06/13 06:23:09;;;;;;;7.55;2.10;;;;;;;17.84;57.43;100128.34;5104267;28;20031;-66
2022/06/13 06:25:35;;;;;;;7.68;1.70;;;;;;;18.27;57.80;100132.66;5103914;28;20035;-67
2022/06/13 06:28:01;;;;;;;9.13;2.33;;;;;;;18.53;55.52;100126.19;5104000;28;20020;-67
2022/06/13 06:30:27;;;;;;;4.43;1.88;;;;;;;18.47;55.00;100129.09;5103913;28;20020;-67
2022/06/13 06:32:57;;;;;;;10.55;2.17;;;;;;;18.02;55.26;100126.69;5085363;28;20147;-67
2022/06/13 06:35:25;;;;;;;12.75;1.98;;;;;;;17.60;55.53;100131.13;5103492;28;20027;-67
2022/06/13 06:37:53;;;;;;;6.68;1.35;;;;;;;17.14;56.47;100121.59;5103966;28;20048;-67
2022/06/13 06:40:21;;;;;;;8.35;2.13;;;;;;;17.32;57.41;100120.00;5103632;28;20401;-67
2022/06/13 06:42:46;;;;;;;5.88;1.60;;;;;;;17.58;56.78;100128.56;5103787;28;20042;-67
2022/06/13 06:45:13;;;;;;;8.93;2.00;;;;;;;17.70;55.59;100121.91;5103578;28;20012;-67
2022/06/13 06:47:39;;;;;;;8.57;1.98;;;;;;;17.45;56.25;100127.34;5103852;28;20448;-67
2022/06/13 06:50:16;;;;;;;10.00;2.17;;;;;;;17.19;56.77;100121.41;5103570;28;20092;-66
2022/06/13 06:52:42;;;;;;;6.82;1.63;;;;;;;16.86;57.31;100133.16;5085548;28;20333;-66
2022/06/13 07:00:46;;;;;;;5.72;1.88;;;;;;;17.19;55.78;100134.53;5103496;28;20062;-66
2022/06/13 07:03:12;;;;;;;8.43;1.98;;;;;;;16.81;55.33;100130.72;5103510;28;20055;-67
2022/06/13 07:05:38;;;;;;;10.35;2.28;;;;;;;16.79;57.03;100131.72;5103470;28;20020;-68
2022/06/13 07:08:03;;;;;;;8.07;1.73;;;;;;;17.04;56.33;100136.84;5103551;28;20043;-65
2022/06/13 07:10:29;;;;;;;12.05;1.65;;;;;;;16.92;56.17;100134.69;5103353;28;20194;-65
2022/06/13 07:12:54;;;;;;;7.90;2.00;;;;;;;16.69;57.17;100136.44;5103768;28;20024;-66
2022/06/13 07:15:20;;;;;;;4.78;1.92;;;;;;;16.77;58.12;100131.78;5103440;28;20020;-66
2022/06/13 07:17:45;;;;;;;8.25;1.95;;;;;;;17.26;57.25;100137.75;5103544;28;20066;-66
2022/06/13 07:20:12;;;;;;;7.10;1.80;;;;;;;17.54;56.31;100136.63;5103374;28;20028;-66
2022/06/13 07:22:46;;;;;;;9.35;2.08;;;;;;;17.61;54.33;100131.94;5103673;28;20264;-65
2022/06/13 07:25:17;;;;;;;12.05;2.58;;;;;;;17.38;53.54;100142.50;5103419;28;20055;-66
2022/06/13 07:27:42;;;;;;;12.57;2.80;;;;;;;17.11;54.29;100149.75;5103711;28;20038;-65
2022/06/13 07:30:08;;;;;;;13.75;2.00;;;;;;;17.15;54.98;100146.06;5103024;28;20020;-65
2022/06/13 07:32:34;;;;;;;10.65;2.17;;;;;;;17.98;54.11;100140.88;5103340;28;20016;-67
2022/06/13 07:35:01;;;;;;;8.60;2.35;;;;;;;18.74;53.10;100147.16;5085045;28;20016;-66
2022/06/13 07:40:11;;;;;;;7.93;1.88;;;;;;;19.82;48.62;100149.88;5103111;28;20043;-66
2022/06/13 07:42:41;;;;;;;8.25;2.00;;;;;;;19.79;48.66;100153.50;5103410;28;20370;-67
2022/06/13 07:45:11;;;;;;;5.93;1.70;;;;;;;19.92;46.30;100145.81;5103105;28;20117;-67
2022/06/13 07:47:36;;;;;;;8.80;1.63;;;;;;;20.15;46.49;100142.94;5104566;28;20024;-66
2022/06/13 07:50:01;;;;;;;7.45;2.00;;;;;;;20.31;45.52;100154.38;5106853;28;20084;-66
2022/06/13 07:52:28;;;;;;;14.40;2.67;;;;;;;20.12;44.33;100148.38;5106898;28;20028;-66
2022/06/13 07:54:54;;;;;;;16.48;3.50;;;;;;;19.96;43.90;100148.28;5106893;28;20023;-66
2022/06/13 07:57:19;;;;;;;7.80;1.90;;;;;;;19.71;45.09;100157.47;5106731;28;20104;-67
2022/06/13 07:59:44;;;;;;;6.60;2.28;;;;;;;20.11;45.51;100146.69;5106643;28;20024;-66
2022/06/13 08:02:15;;;;;;;7.63;1.85;;;;;;;20.44;44.02;100153.72;5106747;28;20024;-66
2022/06/13 08:04:41;;;;;;;5.63;1.50;;;;;;;20.31;43.25;100156.16;5106698;28;20048;-66
2022/06/13 08:07:09;;;;;;;6.45;1.77;;;;;;;20.03;44.22;100161.09;5106845;28;20229;-66
2022/06/13 08:09:34;;;;;;;8.52;2.10;;;;;;;20.38;44.24;100165.44;5106518;28;20020;-67
2022/06/13 08:11:59;;;;;;;10.75;1.77;;;;;;;20.78;42.12;100156.28;5106298;28;20130;-66
2022/06/13 08:14:25;;;;;;;7.55;1.77;;;;;;;20.46;42.84;100172.94;5106160;28;20023;-67
2022/06/13 08:16:50;;;;;;;6.85;2.20;;;;;;;20.77;42.88;100168.63;5106391;28;20492;-67
2022/06/13 08:19:16;;;;;;;7.35;2.30;;;;;;;20.84;42.25;100174.41;5106594;28;20028;-67
2022/06/13 08:21:41;;;;;;;11.23;2.38;;;;;;;20.75;42.16;100178.38;5087966;28;20051;-66
2022/06/13 08:24:07;;;;;;;11.05;2.25;;;;;;;21.04;42.61;100170.69;5087909;28;20028;-66
2022/06/13 08:26:32;;;;;;;9.10;1.90;;;;;;;21.70;41.34;100181.94;5106305;28;20095;-66
2022/06/13 08:28:57;;;;;;;4.95;1.15;;;;;;;22.24;38.53;100170.81;5106094;28;20012;-66
2022/06/13 08:31:23;;;;;;;10.63;2.63;;;;;;;22.52;37.58;100174.38;5106238;28;20012;-67
2022/06/13 08:33:49;;;;;;;6.55;1.35;;;;;;;22.44;38.06;100174.03;5106238;28;20027;-66
2022/06/13 08:36:15;;;;;;;8.50;1.92;;;;;;;21.75;38.87;100164.03;5106136;28;20068;-67
2022/06/13 08:38:41;;;;;;;8.98;1.98;;;;;;;21.82;40.00;100185.69;5105950;28;20024;-66
2022/06/13 08:41:14;;;;;;;5.93;1.95;;;;;;;22.22;39.20;100180.63;5105852;28;20023;-67
2022/06/13 08:44:02;;;;;;;6.78;1.58;;;;;;;21.93;39.19;100185.91;5105647;28;20058;-66
2022/06/13 08:47:02;;;;;;;6.63;1.30;;;;;;;22.45;39.76;100182.78;5105819;28;20036;-67
2022/06/13 08:49:42;;;;;;;6.43;1.45;;;;;;;23.31;36.60;100178.25;5105926;28;20016;-67
2022/06/13 08:52:11;;;;;;;7.45;1.60;;;;;;;22.99;36.52;100182.06;5105811;28;20024;-67
2022/06/13 08:54:37;;;;;;;7.43;1.85;;;;;;;22.23;37.41;100190.28;5105579;28;20079;-66
2022/06/13 08:57:10;;;;;;;6.68;1.52;;;;;;;21.86;38.50;100195.13;5105597;28;20040;-66
2022/06/13 08:59:47;;;;;;;7.82;2.33;;;;;;;22.20;39.06;100187.81;5105087;28;20053;-67
2022/06/13 09:02:22;;;;;;;7.32;1.83;;;;;;;22.10;37.49;100191.94;5105521;28;20092;-66
2022/06/13 09:05:13;;;;;;;10.02;2.00;;;;;;;22.00;38.67;100189.88;5105395;28;20043;-66
2022/06/13 09:07:45;;;;;;;8.15;2.20;;;;;;;22.20;37.48;100194.88;5105297;28;20035;-66
2022/06/13 09:10:37;;;;;;;8.52;2.40;;;;;;;22.71;37.38;100188.28;5105311;28;20102;-66
2022/06/13 09:13:15;;;;;;;8.35;1.80;;;;;;;22.98;36.07;100188.31;5105525;28;20031;-66
2022/06/13 09:15:47;;;;;;;6.03;2.05;;;;;;;22.84;36.90;100191.84;5105009;28;20023;-67
2022/06/13 09:18:25;;;;;;;11.07;2.13;;;;;;;22.39;37.04;100189.31;5105295;28;20050;-67
2022/06/13 09:20:58;;;;;;;5.22;1.65;;;;;;;22.31;37.99;100173.06;5105147;28;20020;-67
2022/06/13 09:23:49;;;;;;;6.95;1.50;;;;;;;22.18;37.31;100184.41;5105146;28;20027;-66
2022/06/13 09:26:29;;;;;;;6.93;1.98;;;;;;;22.58;36.93;100186.38;5105214;28;20106;-67
2022/06/13 09:29:18;;;;;;;6.22;1.60;;;;;;;22.94;36.48;100186.78;5104994;28;20032;-67
2022/06/13 09:31:46;;;;;;;10.43;2.20;;;;;;;22.89;35.98;100191.56;5104998;28;20047;-66
2022/06/13 09:34:30;;;;;;;8.38;1.65;;;;;;;22.51;36.54;100191.19;5105046;28;20028;-67
2022/06/13 09:37:09;;;;;;;6.10;1.35;;;;;;;22.64;36.22;100182.53;5105036;28;20028;-65
2022/06/13 09:39:34;;;;;;;6.80;1.88;;;;;;;22.90;36.47;100186.16;5105045;28;20039;-66
2022/06/13 09:42:27;;;;;;;11.82;2.20;;;;;;;22.99;35.74;100195.31;5104866;28;20020;-66
2022/06/13 09:45:05;;;;;;;7.18;1.77;;;;;;;22.25;36.05;100191.00;5104428;28;20024;-66
2022/06/13 09:47:50;;;;;;;10.82;2.50;;;;;;;22.35;36.73;100180.72;5104635;28;20035;-66
2022/06/13 09:50:29;;;;;;;5.25;1.65;;;;;;;22.78;36.72;100200.16;5104819;28;20023;-65
2022/06/13 09:53:16;;;;;;;7.78;1.67;;;;;;;23.10;36.63;100204.38;5104458;28;20020;-66
2022/06/13 09:55:56;;;;;;;8.65;1.73;;;;;;;23.16;37.08;100196.03;5104544;28;20056;-67
2022/06/13 09:58:24;;;;;;;7.18;1.70;;;;;;;22.83;36.46;100191.97;5104213;28;20130;-66
2022/06/13 10:01:17;;;;;;;9.23;1.80;;;;;;;21.90;37.41;100199.31;5104189;28;20020;-66
2022/06/13 10:04:14;;;;;;;12.45;2.65;;;;;;;21.16;37.87;100192.91;5104527;28;20070;-66
2022/06/13 10:06:47;;;;;;;11.73;2.97;;;;;;;20.90;39.17;100196.94;5098265;28;20036;-66
2022/06/13 10:09:41;;;;;;;8.27;1.70;;;;;;;21.22;39.17;100201.38;5104051;28;20053;-66
2022/06/13 10:12:43;;;;;;;8.77;2.10;;;;;;;21.28;38.98;100186.06;5095051;28;20036;-66
2022/06/13 10:15:15;;;;;;;9.32;1.70;;;;;;;21.63;37.75;100205.25;5104035;28;20016;-66
2022/06/13 10:17:59;;;;;;;8.60;1.77;;;;;;;21.85;36.61;100198.72;5104282;28;20020;-66
2022/06/13 10:20:37;;;;;;;7.53;1.60;;;;;;;21.29;37.31;100187.75;5103987;28;20028;-65
2022/06/13 10:23:13;;;;;;;6.80;2.08;;;;;;;20.96;38.13;100201.91;5104132;28;20498;-66
2022/06/13 10:26:03;;;;;;;9.30;1.65;;;;;;;20.42;39.34;100197.75;5104044;28;20028;-66
2022/06/13 10:28:44;;;;;;;10.30;1.80;;;;;;;21.00;39.85;100213.16;5104296;28;20047;-66
2022/06/13 10:31:12;;;;;;;7.95;1.80;;;;;;;21.33;38.60;100208.69;5104017;28;20051;-66
2022/06/13 10:33:59;;;;;;;7.88;1.63;;;;;;;21.54;38.70;100196.06;5103963;28;20055;-65
2022/06/13 10:36:34;;;;;;;12.05;2.20;;;;;;;21.64;38.56;100210.44;5103894;28;20448;-66
2022/06/13 10:39:05;;;;;;;10.27;2.15;;;;;;;22.17;38.26;100206.50;5103994;28;20028;-66
2022/06/13 10:41:36;;;;;;;11.95;2.38;;;;;;;22.56;37.36;100206.78;5103723;28;20097;-66
2022/06/13 10:44:03;;;;;;;9.10;2.08;;;;;;;22.75;36.79;100206.50;5103291;28;20032;-66
2022/06/13 10:46:29;;;;;;;10.82;2.65;;;;;;;23.07;36.71;100215.16;5103760;28;20024;-67
2022/06/13 10:49:11;;;;;;;10.90;2.00;;;;;;;23.11;36.09;100208.69;5103600;28;20035;-66
2022/06/13 10:51:40;;;;;;;10.27;2.35;;;;;;;23.45;35.50;100216.28;5103537;28;20036;-66
2022/06/13 10:54:13;;;;;;;9.52;2.35;;;;;;;23.40;35.45;100212.09;5103598;28;20020;-67
2022/06/13 10:56:56;;;;;;;6.60;1.45;;;;;;;23.30;34.40;100216.28;5103500;28;20012;-65
2022/06/13 10:59:21;;;;;;;7.00;1.48;;;;;;;22.59;35.54;100217.19;5103489;28;20112;-66
2022/06/13 11:02:00;;;;;;;7.15;2.58;;;;;;;21.83;37.48;100222.59;5103416;28;20024;-66
2022/06/13 11:04:30;;;;;;;15.05;2.63;;;;;;;21.29;38.36;100219.44;5103174;28;20075;-66
2022/06/13 11:07:18;;;;;;;5.07;1.52;;;;;;;20.70;38.41;100184.88;5103325;28;20035;-66
2022/06/13 11:09:46;;;;;;;6.13;1.77;;;;;;;19.81;40.29;100221.91;5103348;28;20048;-65
2022/06/13 11:12:36;;;;;;;10.52;2.35;;;;;;;19.18;41.42;100227.56;5103283;28;20028;-65
2022/06/13 11:23:26;;;;;;;7.38;2.22;;;;;;;18.11;45.80;100224.38;5107655;28;20035;-65
2022/06/13 11:25:58;;;;;;;18.75;2.78;;;;;;;18.09;46.25;100227.09;5107313;28;20024;-66
2022/06/13 11:28:29;;;;;;;9.77;1.92;;;;;;;18.14;46.34;100227.78;5107600;28;20324;-65
2022/06/13 11:31:17;;;;;;;16.33;2.40;;;;;;;18.13;46.60;100228.69;5106985;28;20084;-65
2022/06/13 11:33:42;;;;;;;10.10;2.92;;;;;;;18.06;45.54;100225.47;5107286;28;20285;-65
2022/06/13 11:36:24;;;;;;;5.55;1.83;;;;;;;17.86;45.65;100233.31;5107273;28;20027;-65
2022/06/13 11:38:53;;;;;;;7.53;1.85;;;;;;;17.81;45.18;100228.28;5107065;28;20031;-66
2022/06/13 11:41:23;;;;;;;8.38;1.75;;;;;;;17.69;45.36;100242.75;5106957;28;20028;-65
2022/06/13 11:44:08;;;;;;;6.38;2.10;;;;;;;17.48;46.61;100240.06;5106821;28;20039;-65
2022/06/13 11:46:45;;;;;;;12.48;2.83;;;;;;;17.41;47.75;100241.25;5106950;28;20027;-64
2022/06/13 11:49:14;;;;;;;9.88;2.30;;;;;;;17.49;48.05;100241.81;5106945;28;20016;-65
2022/06/13 11:51:47;;;;;;;9.85;2.60;;;;;;;17.58;48.22;100235.31;5106888;28;20031;-65
2022/06/13 11:54:24;;;;;;;12.30;4.15;;;;;;;17.52;48.69;100239.06;5107004;28;20338;-65
2022/06/13 11:57:11;;;;;;;10.93;3.00;;;;;;;17.54;49.05;100241.59;5106793;28;20516;-65
2022/06/13 11:59:44;;;;;;;12.38;2.50;;;;;;;17.62;48.40;100250.00;5088296;28;20043;-65
2022/06/13 12:02:35;;;;;;;8.48;1.75;;;;;;;17.53;47.30;100240.75;5106691;28;20479;-68
2022/06/13 12:05:00;;;;;;;7.00;1.88;;;;;;;17.43;47.61;100228.91;5106760;28;20514;-67
2022/06/13 12:07:31;;;;;;;9.48;2.40;;;;;;;17.32;47.98;100232.81;5106552;28;20030;-67